sensor_id;sensor_type;location;lat;lon;timestamp;temperature;humidity
43651;DHT22;29247;50.944;5.382;2023-03-31T00:02:12;13.60;84.40
43651;DHT22;29247;50.944;5.382;2023-03-31T00:04:42;13.60;84.50
43651;DHT22;29247;50.944;5.382;2023-03-31T00:07:20;13.50;84.60
43651;DHT22;29247;50.944;5.382;2023-03-31T00:09:49;13.50;84.70
43651;DHT22;29247;50.944;5.382;2023-03-31T00:12:19;13.50;84.80
43651;DHT22;29247;50.944;5.382;2023-03-31T00:14:47;13.50;84.90
43651;DHT22;29247;50.944;5.382;2023-03-31T00:17:14;13.50;85.00
43651;DHT22;29247;50.944;5.382;2023-03-31T00:19:42;13.50;85.10
43651;DHT22;29247;50.944;5.382;2023-03-31T00:22:08;13.50;85.20
43651;DHT22;29247;50.944;5.382;2023-03-31T00:24:36;13.50;85.30
43651;DHT22;29247;50.944;5.382;2023-03-31T00:27:03;13.50;85.40
43651;DHT22;29247;50.944;5.382;2023-03-31T00:29:31;13.50;85.50
43651;DHT22;29247;50.944;5.382;2023-03-31T00:32:00;13.50;85.60
43651;DHT22;29247;50.944;5.382;2023-03-31T00:34:28;13.50;85.70
43651;DHT22;29247;50.944;5.382;2023-03-31T00:36:56;13.50;85.80
43651;DHT22;29247;50.944;5.382;2023-03-31T00:39:23;13.50;85.90
43651;DHT22;29247;50.944;5.382;2023-03-31T00:41:56;13.50;86.00
43651;DHT22;29247;50.944;5.382;2023-03-31T00:44:27;13.50;86.00
43651;DHT22;29247;50.944;5.382;2023-03-31T00:47:01;13.60;86.20
43651;DHT22;29247;50.944;5.382;2023-03-31T00:49:36;13.60;86.30
43651;DHT22;29247;50.944;5.382;2023-03-31T00:52:26;13.60;86.30
43651;DHT22;29247;50.944;5.382;2023-03-31T00:55:02;13.60;86.40
43651;DHT22;29247;50.944;5.382;2023-03-31T00:57:31;13.60;86.40
43651;DHT22;29247;50.944;5.382;2023-03-31T01:00:03;13.60;86.50
43651;DHT22;29247;50.944;5.382;2023-03-31T01:02:39;13.60;86.50
43651;DHT22;29247;50.944;5.382;2023-03-31T01:05:08;13.60;86.50
43651;DHT22;29247;50.944;5.382;2023-03-31T01:07:42;13.60;86.60
43651;DHT22;29247;50.944;5.382;2023-03-31T01:10:11;13.60;86.70
43651;DHT22;29247;50.944;5.382;2023-03-31T01:12:44;13.60;86.70
43651;DHT22;29247;50.944;5.382;2023-03-31T01:15:11;13.60;86.80
43651;DHT22;29247;50.944;5.382;2023-03-31T01:17:37;13.60;86.80
43651;DHT22;29247;50.944;5.382;2023-03-31T01:41:39;13.60;87.20
43651;DHT22;29247;50.944;5.382;2023-03-31T01:44:29;13.60;87.30
43651;DHT22;29247;50.944;5.382;2023-03-31T01:46:59;13.60;87.30
43651;DHT22;29247;50.944;5.382;2023-03-31T01:52:49;13.60;87.80
43651;DHT22;29247;50.944;5.382;2023-03-31T01:55:18;13.50;87.20
43651;DHT22;29247;50.944;5.382;2023-03-31T01:57:53;13.50;87.30
43651;DHT22;29247;50.944;5.382;2023-03-31T02:00:28;13.50;87.40
43651;DHT22;29247;50.944;5.382;2023-03-31T02:02:59;13.50;87.40
43651;DHT22;29247;50.944;5.382;2023-03-31T02:05:33;13.50;87.30
43651;DHT22;29247;50.944;5.382;2023-03-31T02:08:28;13.50;87.40
43651;DHT22;29247;50.944;5.382;2023-03-31T02:10:56;13.40;87.30
43651;DHT22;29247;50.944;5.382;2023-03-31T02:13:25;13.40;87.20
43651;DHT22;29247;50.944;5.382;2023-03-31T02:15:59;13.40;87.20
43651;DHT22;29247;50.944;5.382;2023-03-31T02:18:31;13.40;87.20
43651;DHT22;29247;50.944;5.382;2023-03-31T02:20:58;13.40;87.20
43651;DHT22;29247;50.944;5.382;2023-03-31T02:23:28;13.40;87.20
43651;DHT22;29247;50.944;5.382;2023-03-31T02:26:11;13.40;87.20
43651;DHT22;29247;50.944;5.382;2023-03-31T02:28:38;13.30;87.20
43651;DHT22;29247;50.944;5.382;2023-03-31T02:31:33;13.40;87.30
43651;DHT22;29247;50.944;5.382;2023-03-31T02:34:05;13.30;87.30
43651;DHT22;29247;50.944;5.382;2023-03-31T02:36:31;13.30;87.20
43651;DHT22;29247;50.944;5.382;2023-03-31T02:39:04;13.30;87.30
43651;DHT22;29247;50.944;5.382;2023-03-31T02:41:34;13.30;87.30
43651;DHT22;29247;50.944;5.382;2023-03-31T02:44:00;13.30;87.20
43651;DHT22;29247;50.944;5.382;2023-03-31T02:46:26;13.20;87.20
43651;DHT22;29247;50.944;5.382;2023-03-31T02:49:00;13.30;87.30
43651;DHT22;29247;50.944;5.382;2023-03-31T02:51:43;13.30;87.20
43651;DHT22;29247;50.944;5.382;2023-03-31T02:57:32;13.20;87.20
43651;DHT22;29247;50.944;5.382;2023-03-31T03:05:31;13.10;87.10
43651;DHT22;29247;50.944;5.382;2023-03-31T03:18:30;13.10;87.30
43651;DHT22;29247;50.944;5.382;2023-03-31T03:20:56;13.10;87.20
43651;DHT22;29247;50.944;5.382;2023-03-31T03:23:22;13.10;87.20
43651;DHT22;29247;50.944;5.382;2023-03-31T03:25:53;13.10;87.20
43651;DHT22;29247;50.944;5.382;2023-03-31T03:28:22;13.10;87.90
43651;DHT22;29247;50.944;5.382;2023-03-31T03:30:52;13.10;87.10
43651;DHT22;29247;50.944;5.382;2023-03-31T03:33:17;13.10;87.80
43651;DHT22;29247;50.944;5.382;2023-03-31T03:35:44;13.10;87.10
43651;DHT22;29247;50.944;5.382;2023-03-31T03:38:12;13.00;86.80
43651;DHT22;29247;50.944;5.382;2023-03-31T03:40:40;13.00;86.80
43651;DHT22;29247;50.944;5.382;2023-03-31T03:43:10;13.00;86.90
43651;DHT22;29247;50.944;5.382;2023-03-31T03:45:38;13.00;86.80
43651;DHT22;29247;50.944;5.382;2023-03-31T03:48:04;13.00;86.80
43651;DHT22;29247;50.944;5.382;2023-03-31T03:50:35;13.00;86.80
43651;DHT22;29247;50.944;5.382;2023-03-31T03:53:00;13.00;86.80
43651;DHT22;29247;50.944;5.382;2023-03-31T03:55:29;13.00;86.70
43651;DHT22;29247;50.944;5.382;2023-03-31T03:57:55;12.90;86.50
43651;DHT22;29247;50.944;5.382;2023-03-31T04:00:20;12.90;86.60
43651;DHT22;29247;50.944;5.382;2023-03-31T04:02:46;13.00;86.70
43651;DHT22;29247;50.944;5.382;2023-03-31T04:05:17;12.90;86.70
43651;DHT22;29247;50.944;5.382;2023-03-31T04:07:43;12.90;86.60
43651;DHT22;29247;50.944;5.382;2023-03-31T04:10:09;12.90;86.50
43651;DHT22;29247;50.944;5.382;2023-03-31T04:12:35;12.90;86.50
43651;DHT22;29247;50.944;5.382;2023-03-31T04:15:01;12.90;86.50
43651;DHT22;29247;50.944;5.382;2023-03-31T04:17:26;12.90;86.50
43651;DHT22;29247;50.944;5.382;2023-03-31T04:20:05;12.90;86.40
43651;DHT22;29247;50.944;5.382;2023-03-31T04:22:32;12.90;86.40
43651;DHT22;29247;50.944;5.382;2023-03-31T04:25:10;13.00;86.30
43651;DHT22;29247;50.944;5.382;2023-03-31T04:27:42;12.90;86.20
43651;DHT22;29247;50.944;5.382;2023-03-31T04:30:14;12.90;86.20
43651;DHT22;29247;50.944;5.382;2023-03-31T04:32:59;13.00;86.20
43651;DHT22;29247;50.944;5.382;2023-03-31T04:35:29;12.90;86.00
43651;DHT22;29247;50.944;5.382;2023-03-31T04:38:09;12.90;86.10
43651;DHT22;29247;50.944;5.382;2023-03-31T04:40:38;13.00;86.10
43651;DHT22;29247;50.944;5.382;2023-03-31T04:43:05;13.00;86.20
43651;DHT22;29247;50.944;5.382;2023-03-31T04:45:31;13.00;86.20
43651;DHT22;29247;50.944;5.382;2023-03-31T04:47:57;13.00;86.20
43651;DHT22;29247;50.944;5.382;2023-03-31T04:50:22;13.00;86.20
43651;DHT22;29247;50.944;5.382;2023-03-31T04:52:50;12.90;86.20
43651;DHT22;29247;50.944;5.382;2023-03-31T04:55:16;13.00;86.30
43651;DHT22;29247;50.944;5.382;2023-03-31T04:57:44;13.00;86.30
43651;DHT22;29247;50.944;5.382;2023-03-31T05:00:10;13.00;86.40
43651;DHT22;29247;50.944;5.382;2023-03-31T05:02:36;13.00;86.40
43651;DHT22;29247;50.944;5.382;2023-03-31T05:05:02;13.00;86.40
43651;DHT22;29247;50.944;5.382;2023-03-31T05:07:29;13.00;86.50
43651;DHT22;29247;50.944;5.382;2023-03-31T05:09:54;13.00;86.40
43651;DHT22;29247;50.944;5.382;2023-03-31T05:12:20;13.00;86.40
43651;DHT22;29247;50.944;5.382;2023-03-31T05:14:46;13.00;86.50
43651;DHT22;29247;50.944;5.382;2023-03-31T05:17:14;13.00;86.50
43651;DHT22;29247;50.944;5.382;2023-03-31T05:19:44;13.00;86.60
43651;DHT22;29247;50.944;5.382;2023-03-31T05:22:10;13.00;86.70
43651;DHT22;29247;50.944;5.382;2023-03-31T05:24:35;13.00;86.80
43651;DHT22;29247;50.944;5.382;2023-03-31T05:27:04;13.00;86.90
43651;DHT22;29247;50.944;5.382;2023-03-31T05:29:29;13.00;87.10
43651;DHT22;29247;50.944;5.382;2023-03-31T05:31:58;13.00;87.30
43651;DHT22;29247;50.944;5.382;2023-03-31T05:34:23;13.00;87.40
43651;DHT22;29247;50.944;5.382;2023-03-31T05:36:51;13.00;87.50
43651;DHT22;29247;50.944;5.382;2023-03-31T05:39:18;13.00;87.50
43651;DHT22;29247;50.944;5.382;2023-03-31T05:41:44;13.00;87.60
43651;DHT22;29247;50.944;5.382;2023-03-31T05:44:17;13.00;87.70
43651;DHT22;29247;50.944;5.382;2023-03-31T05:46:45;13.00;87.90
43651;DHT22;29247;50.944;5.382;2023-03-31T05:49:11;13.00;88.00
43651;DHT22;29247;50.944;5.382;2023-03-31T05:51:39;13.00;88.10
43651;DHT22;29247;50.944;5.382;2023-03-31T05:54:04;13.00;88.20
43651;DHT22;29247;50.944;5.382;2023-03-31T05:56:33;13.00;88.20
43651;DHT22;29247;50.944;5.382;2023-03-31T05:59:00;13.00;88.30
43651;DHT22;29247;50.944;5.382;2023-03-31T06:01:28;13.00;88.40
43651;DHT22;29247;50.944;5.382;2023-03-31T06:03:55;13.00;88.30
43651;DHT22;29247;50.944;5.382;2023-03-31T06:06:24;13.00;88.40
43651;DHT22;29247;50.944;5.382;2023-03-31T06:08:50;13.00;88.40
43651;DHT22;29247;50.944;5.382;2023-03-31T06:11:18;13.00;88.40
43651;DHT22;29247;50.944;5.382;2023-03-31T06:13:47;13.00;88.40
43651;DHT22;29247;50.944;5.382;2023-03-31T06:16:14;13.00;88.40
43651;DHT22;29247;50.944;5.382;2023-03-31T06:18:41;13.00;88.40
43651;DHT22;29247;50.944;5.382;2023-03-31T06:21:11;13.00;88.40
43651;DHT22;29247;50.944;5.382;2023-03-31T06:23:40;13.00;88.40
43651;DHT22;29247;50.944;5.382;2023-03-31T06:26:16;13.00;88.50
43651;DHT22;29247;50.944;5.382;2023-03-31T06:28:44;13.00;88.60
43651;DHT22;29247;50.944;5.382;2023-03-31T06:31:21;13.00;88.60
43651;DHT22;29247;50.944;5.382;2023-03-31T06:33:48;13.00;88.60
43651;DHT22;29247;50.944;5.382;2023-03-31T06:36:18;13.00;88.70
43651;DHT22;29247;50.944;5.382;2023-03-31T06:38:45;13.00;88.80
43651;DHT22;29247;50.944;5.382;2023-03-31T06:41:14;13.10;89.00
43651;DHT22;29247;50.944;5.382;2023-03-31T06:43:40;13.10;89.00
43651;DHT22;29247;50.944;5.382;2023-03-31T06:46:07;13.10;88.90
43651;DHT22;29247;50.944;5.382;2023-03-31T06:48:33;13.10;88.70
43651;DHT22;29247;50.944;5.382;2023-03-31T06:51:03;13.20;88.70
43651;DHT22;29247;50.944;5.382;2023-03-31T06:53:30;13.20;88.70
43651;DHT22;29247;50.944;5.382;2023-03-31T06:55:59;13.20;88.60
43651;DHT22;29247;50.944;5.382;2023-03-31T06:58:25;13.30;88.50
43651;DHT22;29247;50.944;5.382;2023-03-31T07:00:51;13.30;88.30
43651;DHT22;29247;50.944;5.382;2023-03-31T07:03:18;13.30;88.10
43651;DHT22;29247;50.944;5.382;2023-03-31T07:05:53;13.40;88.00
43651;DHT22;29247;50.944;5.382;2023-03-31T07:08:19;13.40;87.90
43651;DHT22;29247;50.944;5.382;2023-03-31T07:10:49;13.40;87.90
43651;DHT22;29247;50.944;5.382;2023-03-31T07:13:17;13.50;87.80
43651;DHT22;29247;50.944;5.382;2023-03-31T07:15:46;13.50;87.60
43651;DHT22;29247;50.944;5.382;2023-03-31T07:18:15;13.60;87.60
43651;DHT22;29247;50.944;5.382;2023-03-31T07:20:41;13.50;87.30
43651;DHT22;29247;50.944;5.382;2023-03-31T07:23:07;13.60;87.30
43651;DHT22;29247;50.944;5.382;2023-03-31T07:25:35;13.70;87.40
43651;DHT22;29247;50.944;5.382;2023-03-31T07:28:04;13.70;87.40
43651;DHT22;29247;50.944;5.382;2023-03-31T07:30:32;13.80;87.40
43651;DHT22;29247;50.944;5.382;2023-03-31T07:32:59;13.80;87.10
43651;DHT22;29247;50.944;5.382;2023-03-31T07:35:24;13.90;86.90
43651;DHT22;29247;50.944;5.382;2023-03-31T07:37:50;13.90;86.50
43651;DHT22;29247;50.944;5.382;2023-03-31T07:40:24;13.90;86.10
43651;DHT22;29247;50.944;5.382;2023-03-31T07:42:53;14.00;86.00
43651;DHT22;29247;50.944;5.382;2023-03-31T07:45:23;14.00;85.80
43651;DHT22;29247;50.944;5.382;2023-03-31T07:47:50;14.10;85.60
43651;DHT22;29247;50.944;5.382;2023-03-31T07:50:16;14.10;85.20
43651;DHT22;29247;50.944;5.382;2023-03-31T07:52:45;14.10;85.00
43651;DHT22;29247;50.944;5.382;2023-03-31T07:55:12;14.20;84.80
43651;DHT22;29247;50.944;5.382;2023-03-31T07:57:38;14.20;84.60
43651;DHT22;29247;50.944;5.382;2023-03-31T08:00:06;14.30;84.40
43651;DHT22;29247;50.944;5.382;2023-03-31T08:02:37;14.40;84.20
43651;DHT22;29247;50.944;5.382;2023-03-31T08:05:05;14.40;84.10
43651;DHT22;29247;50.944;5.382;2023-03-31T08:07:34;14.50;84.00
43651;DHT22;29247;50.944;5.382;2023-03-31T08:10:03;14.60;83.40
43651;DHT22;29247;50.944;5.382;2023-03-31T08:12:31;14.60;82.90
43651;DHT22;29247;50.944;5.382;2023-03-31T08:14:57;14.70;82.80
43651;DHT22;29247;50.944;5.382;2023-03-31T08:17:22;14.70;82.50
43651;DHT22;29247;50.944;5.382;2023-03-31T08:19:48;14.70;82.00
43651;DHT22;29247;50.944;5.382;2023-03-31T08:22:16;14.70;81.70
43651;DHT22;29247;50.944;5.382;2023-03-31T08:24:41;14.70;81.20
43651;DHT22;29247;50.944;5.382;2023-03-31T08:27:07;14.70;80.90
43651;DHT22;29247;50.944;5.382;2023-03-31T08:29:35;14.70;80.20
43651;DHT22;29247;50.944;5.382;2023-03-31T08:32:00;14.70;79.80
43651;DHT22;29247;50.944;5.382;2023-03-31T08:34:26;14.70;79.80
43651;DHT22;29247;50.944;5.382;2023-03-31T08:36:56;14.70;79.90
43651;DHT22;29247;50.944;5.382;2023-03-31T08:39:28;14.70;79.70
43651;DHT22;29247;50.944;5.382;2023-03-31T08:42:04;14.80;79.50
43651;DHT22;29247;50.944;5.382;2023-03-31T08:44:39;14.80;79.30
43651;DHT22;29247;50.944;5.382;2023-03-31T08:47:14;14.80;79.00
43651;DHT22;29247;50.944;5.382;2023-03-31T08:49:47;14.80;78.50
43651;DHT22;29247;50.944;5.382;2023-03-31T08:52:18;14.80;78.40
43651;DHT22;29247;50.944;5.382;2023-03-31T08:54:55;14.90;79.30
43651;DHT22;29247;50.944;5.382;2023-03-31T08:57:29;15.00;78.40
43651;DHT22;29247;50.944;5.382;2023-03-31T09:00:01;15.00;78.60
43651;DHT22;29247;50.944;5.382;2023-03-31T09:02:40;15.10;78.60
43651;DHT22;29247;50.944;5.382;2023-03-31T09:05:30;15.30;78.70
43651;DHT22;29247;50.944;5.382;2023-03-31T09:16:31;15.40;76.70
43651;DHT22;29247;50.944;5.382;2023-03-31T09:19:07;15.40;75.90
43651;DHT22;29247;50.944;5.382;2023-03-31T09:21:39;15.40;75.20
43651;DHT22;29247;50.944;5.382;2023-03-31T09:24:19;15.40;75.00
43651;DHT22;29247;50.944;5.382;2023-03-31T09:26:54;15.40;75.30
43651;DHT22;29247;50.944;5.382;2023-03-31T09:30:01;15.40;75.20
43651;DHT22;29247;50.944;5.382;2023-03-31T09:32:31;15.40;75.40
43651;DHT22;29247;50.944;5.382;2023-03-31T09:35:33;15.40;74.90
43651;DHT22;29247;50.944;5.382;2023-03-31T09:37:59;15.40;75.20
43651;DHT22;29247;50.944;5.382;2023-03-31T09:40:26;15.40;75.30
43651;DHT22;29247;50.944;5.382;2023-03-31T09:43:02;15.40;75.20
43651;DHT22;29247;50.944;5.382;2023-03-31T09:45:31;15.40;74.90
43651;DHT22;29247;50.944;5.382;2023-03-31T09:48:05;15.40;74.70
43651;DHT22;29247;50.944;5.382;2023-03-31T09:50:38;15.40;74.40
43651;DHT22;29247;50.944;5.382;2023-03-31T09:53:15;15.40;74.60
43651;DHT22;29247;50.944;5.382;2023-03-31T09:55:49;15.40;74.60
43651;DHT22;29247;50.944;5.382;2023-03-31T09:58:17;15.40;74.80
43651;DHT22;29247;50.944;5.382;2023-03-31T10:01:05;15.40;74.60
43651;DHT22;29247;50.944;5.382;2023-03-31T10:03:51;15.40;74.30
43651;DHT22;29247;50.944;5.382;2023-03-31T10:06:24;15.40;74.30
43651;DHT22;29247;50.944;5.382;2023-03-31T10:08:58;15.40;75.00
43651;DHT22;29247;50.944;5.382;2023-03-31T10:11:25;15.50;74.10
43651;DHT22;29247;50.944;5.382;2023-03-31T10:14:14;15.50;74.00
43651;DHT22;29247;50.944;5.382;2023-03-31T10:16:46;15.50;73.80
43651;DHT22;29247;50.944;5.382;2023-03-31T10:19:30;15.60;73.60
43651;DHT22;29247;50.944;5.382;2023-03-31T10:24:34;15.70;73.80
43651;DHT22;29247;50.944;5.382;2023-03-31T10:27:01;15.70;73.70
43651;DHT22;29247;50.944;5.382;2023-03-31T10:29:30;15.80;73.70
43651;DHT22;29247;50.944;5.382;2023-03-31T10:34:45;16.00;73.60
43651;DHT22;29247;50.944;5.382;2023-03-31T10:37:16;16.10;73.70
43651;DHT22;29247;50.944;5.382;2023-03-31T10:39:44;16.20;73.40
43651;DHT22;29247;50.944;5.382;2023-03-31T10:42:21;16.30;73.40
43651;DHT22;29247;50.944;5.382;2023-03-31T10:44:48;16.50;72.70
43651;DHT22;29247;50.944;5.382;2023-03-31T10:47:20;16.50;71.50
43651;DHT22;29247;50.944;5.382;2023-03-31T10:50:13;16.40;70.40
43651;DHT22;29247;50.944;5.382;2023-03-31T10:52:45;16.40;70.20
43651;DHT22;29247;50.944;5.382;2023-03-31T10:55:17;16.30;70.50
43651;DHT22;29247;50.944;5.382;2023-03-31T11:05:59;16.20;72.10
43651;DHT22;29247;50.944;5.382;2023-03-31T11:08:50;16.20;72.20
43651;DHT22;29247;50.944;5.382;2023-03-31T11:17:04;16.30;71.60
43651;DHT22;29247;50.944;5.382;2023-03-31T11:22:43;16.40;71.00
43651;DHT22;29247;50.944;5.382;2023-03-31T11:25:25;16.50;69.80
43651;DHT22;29247;50.944;5.382;2023-03-31T11:28:17;16.50;69.90
43651;DHT22;29247;50.944;5.382;2023-03-31T11:30:57;16.60;70.10
43651;DHT22;29247;50.944;5.382;2023-03-31T11:33:39;16.60;68.70
43651;DHT22;29247;50.944;5.382;2023-03-31T11:36:20;16.70;68.70
43651;DHT22;29247;50.944;5.382;2023-03-31T11:41:50;16.80;68.00
43651;DHT22;29247;50.944;5.382;2023-03-31T11:44:19;16.80;67.40
43651;DHT22;29247;50.944;5.382;2023-03-31T11:49:31;16.80;66.70
43651;DHT22;29247;50.944;5.382;2023-03-31T11:54:42;16.90;66.50
43651;DHT22;29247;50.944;5.382;2023-03-31T11:57:22;17.00;65.70
43651;DHT22;29247;50.944;5.382;2023-03-31T12:00:04;17.10;65.60
43651;DHT22;29247;50.944;5.382;2023-03-31T12:02:50;17.10;64.30
43651;DHT22;29247;50.944;5.382;2023-03-31T12:05:21;17.10;63.80
43651;DHT22;29247;50.944;5.382;2023-03-31T12:07:58;17.10;63.60
43651;DHT22;29247;50.944;5.382;2023-03-31T12:10:42;17.10;63.40
43651;DHT22;29247;50.944;5.382;2023-03-31T12:21:17;17.30;63.30
43651;DHT22;29247;50.944;5.382;2023-03-31T12:23:46;17.30;63.40
43651;DHT22;29247;50.944;5.382;2023-03-31T12:29:01;17.30;63.30
43651;DHT22;29247;50.944;5.382;2023-03-31T12:31:29;17.30;63.00
43651;DHT22;29247;50.944;5.382;2023-03-31T12:34:04;17.30;62.90
43651;DHT22;29247;50.944;5.382;2023-03-31T12:39:40;17.20;62.70
43651;DHT22;29247;50.944;5.382;2023-03-31T12:55:35;17.10;62.90
43651;DHT22;29247;50.944;5.382;2023-03-31T13:01:16;17.10;62.70
43651;DHT22;29247;50.944;5.382;2023-03-31T13:03:52;17.20;62.40
43651;DHT22;29247;50.944;5.382;2023-03-31T13:14:06;16.90;63.20
43651;DHT22;29247;50.944;5.382;2023-03-31T13:16:40;16.80;64.00
43651;DHT22;29247;50.944;5.382;2023-03-31T13:19:11;16.70;64.90
43651;DHT22;29247;50.944;5.382;2023-03-31T13:21:56;16.60;65.80
43651;DHT22;29247;50.944;5.382;2023-03-31T13:24:26;16.50;66.80
43651;DHT22;29247;50.944;5.382;2023-03-31T13:26:53;16.40;67.50
43651;DHT22;29247;50.944;5.382;2023-03-31T13:29:25;16.40;68.00
43651;DHT22;29247;50.944;5.382;2023-03-31T14:11:28;15.80;75.00
43651;DHT22;29247;50.944;5.382;2023-03-31T14:16:25;15.80;75.50
43651;DHT22;29247;50.944;5.382;2023-03-31T14:19:06;15.80;75.80
43651;DHT22;29247;50.944;5.382;2023-03-31T14:21:48;15.80;75.90
43651;DHT22;29247;50.944;5.382;2023-03-31T14:24:46;15.80;76.00
43651;DHT22;29247;50.944;5.382;2023-03-31T14:35:34;15.90;74.80
43651;DHT22;29247;50.944;5.382;2023-03-31T14:38:16;15.90;74.50
43651;DHT22;29247;50.944;5.382;2023-03-31T14:40:51;15.80;74.30
43651;DHT22;29247;50.944;5.382;2023-03-31T14:43:29;15.80;75.00
43651;DHT22;29247;50.944;5.382;2023-03-31T14:46:05;15.80;73.90
43651;DHT22;29247;50.944;5.382;2023-03-31T14:48:42;15.80;73.80
43651;DHT22;29247;50.944;5.382;2023-03-31T14:51:11;15.80;73.30
43651;DHT22;29247;50.944;5.382;2023-03-31T14:53:41;15.80;73.20
43651;DHT22;29247;50.944;5.382;2023-03-31T14:56:12;15.80;73.00
43651;DHT22;29247;50.944;5.382;2023-03-31T14:58:42;15.70;73.00
43651;DHT22;29247;50.944;5.382;2023-03-31T15:01:16;15.70;73.20
43651;DHT22;29247;50.944;5.382;2023-03-31T15:03:49;15.70;73.40
43651;DHT22;29247;50.944;5.382;2023-03-31T15:06:22;15.70;73.30
43651;DHT22;29247;50.944;5.382;2023-03-31T15:08:48;15.70;73.50
43651;DHT22;29247;50.944;5.382;2023-03-31T15:11:20;15.70;73.10
43651;DHT22;29247;50.944;5.382;2023-03-31T15:13:48;15.60;72.80
43651;DHT22;29247;50.944;5.382;2023-03-31T15:18:58;15.50;72.50
43651;DHT22;29247;50.944;5.382;2023-03-31T15:21:26;15.50;72.30
43651;DHT22;29247;50.944;5.382;2023-03-31T15:23:57;15.50;72.20
43651;DHT22;29247;50.944;5.382;2023-03-31T15:26:48;15.40;72.10
43651;DHT22;29247;50.944;5.382;2023-03-31T15:29:21;15.30;72.00
43651;DHT22;29247;50.944;5.382;2023-03-31T15:31:48;15.30;71.90
43651;DHT22;29247;50.944;5.382;2023-03-31T15:34:29;15.20;71.80
43651;DHT22;29247;50.944;5.382;2023-03-31T15:36:57;15.20;72.00
43651;DHT22;29247;50.944;5.382;2023-03-31T15:39:31;15.10;72.10
43651;DHT22;29247;50.944;5.382;2023-03-31T15:41:59;15.10;72.40
43651;DHT22;29247;50.944;5.382;2023-03-31T15:47:23;15.00;73.10
43651;DHT22;29247;50.944;5.382;2023-03-31T15:49:57;14.90;73.40
43651;DHT22;29247;50.944;5.382;2023-03-31T15:52:35;14.90;73.70
43651;DHT22;29247;50.944;5.382;2023-03-31T15:55:29;14.90;74.30
43651;DHT22;29247;50.944;5.382;2023-03-31T15:57:58;14.90;74.50
43651;DHT22;29247;50.944;5.382;2023-03-31T16:03:04;14.70;75.00
43651;DHT22;29247;50.944;5.382;2023-03-31T16:05:53;14.70;75.20
43651;DHT22;29247;50.944;5.382;2023-03-31T16:11:39;14.70;74.80
43651;DHT22;29247;50.944;5.382;2023-03-31T16:14:17;14.70;74.50
43651;DHT22;29247;50.944;5.382;2023-03-31T16:16:54;14.70;74.80
43651;DHT22;29247;50.944;5.382;2023-03-31T16:19:23;14.70;75.00
43651;DHT22;29247;50.944;5.382;2023-03-31T16:21:54;14.70;75.10
43651;DHT22;29247;50.944;5.382;2023-03-31T16:24:31;14.70;75.40
43651;DHT22;29247;50.944;5.382;2023-03-31T16:27:03;14.70;75.60
43651;DHT22;29247;50.944;5.382;2023-03-31T16:29:32;14.70;75.60
43651;DHT22;29247;50.944;5.382;2023-03-31T16:32:14;14.70;75.80
43651;DHT22;29247;50.944;5.382;2023-03-31T16:34:58;14.70;76.00
43651;DHT22;29247;50.944;5.382;2023-03-31T16:37:25;14.70;76.10
43651;DHT22;29247;50.944;5.382;2023-03-31T16:39:54;14.70;76.00
43651;DHT22;29247;50.944;5.382;2023-03-31T16:42:21;14.60;75.90
43651;DHT22;29247;50.944;5.382;2023-03-31T16:44:49;14.60;76.00
43651;DHT22;29247;50.944;5.382;2023-03-31T16:47:17;14.60;75.90
43651;DHT22;29247;50.944;5.382;2023-03-31T16:49:43;14.50;76.00
43651;DHT22;29247;50.944;5.382;2023-03-31T16:52:11;14.50;76.30
43651;DHT22;29247;50.944;5.382;2023-03-31T16:54:37;14.50;76.30
43651;DHT22;29247;50.944;5.382;2023-03-31T16:57:05;14.40;76.20
43651;DHT22;29247;50.944;5.382;2023-03-31T16:59:31;14.40;76.20
43651;DHT22;29247;50.944;5.382;2023-03-31T17:01:57;14.40;76.00
43651;DHT22;29247;50.944;5.382;2023-03-31T17:04:26;14.30;75.90
43651;DHT22;29247;50.944;5.382;2023-03-31T17:06:52;14.30;75.80
43651;DHT22;29247;50.944;5.382;2023-03-31T17:09:18;14.30;75.60
43651;DHT22;29247;50.944;5.382;2023-03-31T17:11:48;14.20;75.40
43651;DHT22;29247;50.944;5.382;2023-03-31T17:14:17;14.20;75.30
43651;DHT22;29247;50.944;5.382;2023-03-31T17:16:42;14.20;75.10
43651;DHT22;29247;50.944;5.382;2023-03-31T17:19:09;14.20;74.90
43651;DHT22;29247;50.944;5.382;2023-03-31T17:21:35;14.20;74.90
43651;DHT22;29247;50.944;5.382;2023-03-31T17:24:05;14.20;75.00
43651;DHT22;29247;50.944;5.382;2023-03-31T17:26:32;14.20;74.90
43651;DHT22;29247;50.944;5.382;2023-03-31T17:28:58;14.20;74.80
43651;DHT22;29247;50.944;5.382;2023-03-31T17:31:25;14.10;74.70
43651;DHT22;29247;50.944;5.382;2023-03-31T17:33:53;14.20;74.80
43651;DHT22;29247;50.944;5.382;2023-03-31T17:36:20;14.10;74.80
43651;DHT22;29247;50.944;5.382;2023-03-31T17:38:46;14.10;75.00
43651;DHT22;29247;50.944;5.382;2023-03-31T17:41:12;14.10;75.00
43651;DHT22;29247;50.944;5.382;2023-03-31T17:43:38;14.10;75.30
43651;DHT22;29247;50.944;5.382;2023-03-31T17:46:08;14.10;75.40
43651;DHT22;29247;50.944;5.382;2023-03-31T17:48:37;14.10;75.60
43651;DHT22;29247;50.944;5.382;2023-03-31T17:51:11;14.00;75.60
43651;DHT22;29247;50.944;5.382;2023-03-31T17:53:41;14.00;75.80
43651;DHT22;29247;50.944;5.382;2023-03-31T17:56:11;14.00;75.90
43651;DHT22;29247;50.944;5.382;2023-03-31T17:58:37;14.00;76.10
43651;DHT22;29247;50.944;5.382;2023-03-31T18:01:07;13.90;76.20
43651;DHT22;29247;50.944;5.382;2023-03-31T18:03:36;14.00;76.40
43651;DHT22;29247;50.944;5.382;2023-03-31T18:06:09;14.00;76.50
43651;DHT22;29247;50.944;5.382;2023-03-31T18:08:36;13.90;76.60
43651;DHT22;29247;50.944;5.382;2023-03-31T18:11:04;13.90;76.60
43651;DHT22;29247;50.944;5.382;2023-03-31T18:13:35;13.90;76.80
43651;DHT22;29247;50.944;5.382;2023-03-31T18:16:02;13.90;76.90
43651;DHT22;29247;50.944;5.382;2023-03-31T18:18:30;13.90;77.10
43651;DHT22;29247;50.944;5.382;2023-03-31T18:20:56;13.90;77.20
43651;DHT22;29247;50.944;5.382;2023-03-31T18:23:27;13.90;77.40
43651;DHT22;29247;50.944;5.382;2023-03-31T18:25:53;13.80;77.50
43651;DHT22;29247;50.944;5.382;2023-03-31T18:28:19;13.80;77.60
43651;DHT22;29247;50.944;5.382;2023-03-31T18:30:46;13.80;77.80
43651;DHT22;29247;50.944;5.382;2023-03-31T18:33:12;13.80;78.00
43651;DHT22;29247;50.944;5.382;2023-03-31T18:35:38;13.80;78.90
43651;DHT22;29247;50.944;5.382;2023-03-31T18:38:06;13.70;78.20
43651;DHT22;29247;50.944;5.382;2023-03-31T18:40:32;13.70;78.40
43651;DHT22;29247;50.944;5.382;2023-03-31T18:42:58;13.70;78.50
43651;DHT22;29247;50.944;5.382;2023-03-31T18:45:27;13.70;78.60
43651;DHT22;29247;50.944;5.382;2023-03-31T18:47:55;13.70;78.70
43651;DHT22;29247;50.944;5.382;2023-03-31T18:50:25;13.60;78.80
43651;DHT22;29247;50.944;5.382;2023-03-31T18:52:51;13.60;78.90
43651;DHT22;29247;50.944;5.382;2023-03-31T18:55:18;13.60;79.00
43651;DHT22;29247;50.944;5.382;2023-03-31T18:57:46;13.60;79.20